createdAt,value
2023-04-30T00:04:53.645Z,83.33
2023-04-30T00:09:55.215Z,83.12
2023-04-30T00:14:56.488Z,83.40
2023-04-30T00:19:57.785Z,83.16
2023-04-30T00:24:59.276Z,82.92
2023-04-30T00:30:00.330Z,83.03
2023-04-30T00:35:01.775Z,83.13
2023-04-30T00:40:03.849Z,83.00
2023-04-30T00:45:08.366Z,83.17
2023-04-30T00:50:09.764Z,83.50
2023-04-30T00:55:11.930Z,84.11
2023-04-30T01:00:14.590Z,84.61
2023-04-30T01:05:18.877Z,84.92
2023-04-30T01:10:22.925Z,84.99
2023-04-30T01:15:42.773Z,85.56
2023-04-30T01:20:53.983Z,85.55
2023-04-30T01:26:14.908Z,85.80
2023-04-30T01:31:18.885Z,85.85
2023-04-30T01:36:32.443Z,86.02
2023-04-30T01:41:42.353Z,86.12
2023-04-30T01:46:53.360Z,85.79
2023-04-30T01:52:14.253Z,85.84
2023-04-30T01:57:28.478Z,86.20
2023-04-30T02:02:30.221Z,86.62
2023-04-30T02:07:44.378Z,87.00
2023-04-30T02:12:45.378Z,87.49
2023-04-30T02:17:46.576Z,86.95
2023-04-30T02:22:47.850Z,86.29
2023-04-30T02:27:50.707Z,87.24
2023-04-30T02:32:51.696Z,87.91
2023-04-30T02:37:52.751Z,88.39
2023-04-30T02:42:56.021Z,88.94
2023-04-30T02:47:57.117Z,89.08
2023-04-30T02:52:58.401Z,89.42
2023-04-30T02:57:59.751Z,88.40
2023-04-30T03:03:00.848Z,83.66
2023-04-30T03:08:01.927Z,85.55
2023-04-30T03:13:03.058Z,86.62
2023-04-30T03:18:04.575Z,87.65
2023-04-30T03:23:06.244Z,88.41
2023-04-30T03:28:07.197Z,88.12
2023-04-30T03:33:08.430Z,87.52
2023-04-30T03:38:09.535Z,87.59
2023-04-30T03:43:11.565Z,86.46
2023-04-30T03:48:12.688Z,86.39
2023-04-30T03:53:14.127Z,86.74
2023-04-30T03:58:15.445Z,86.04
2023-04-30T04:03:16.852Z,85.65
2023-04-30T04:08:18.109Z,85.63
2023-04-30T04:13:19.099Z,85.58
2023-04-30T04:18:20.165Z,85.62
2023-04-30T04:23:22.031Z,85.01
2023-04-30T04:28:23.142Z,84.48
2023-04-30T04:33:24.281Z,84.05
2023-04-30T04:38:25.768Z,84.20
2023-04-30T04:43:27.003Z,83.54
2023-04-30T04:48:28.092Z,83.36
2023-04-30T04:53:30.220Z,82.64
2023-04-30T04:58:32.151Z,82.99
2023-04-30T05:03:36.416Z,82.32
2023-04-30T05:08:37.687Z,81.91
2023-04-30T05:13:38.673Z,81.00
2023-04-30T05:18:39.719Z,80.55
2023-04-30T05:23:40.710Z,80.60
2023-04-30T05:28:45.003Z,80.01
2023-04-30T05:33:49.287Z,79.38
2023-04-30T05:38:50.962Z,78.78
2023-04-30T05:43:51.931Z,79.03
2023-04-30T05:48:52.947Z,77.83
2023-04-30T05:53:54.035Z,76.81
2023-04-30T05:58:55.050Z,77.41
2023-04-30T06:03:56.178Z,77.09
2023-04-30T06:08:57.280Z,76.60
2023-04-30T06:13:58.605Z,75.45
2023-04-30T06:18:59.574Z,73.32
2023-04-30T06:24:00.621Z,72.59
2023-04-30T06:29:01.681Z,72.56
2023-04-30T06:34:02.863Z,71.14
2023-04-30T06:39:04.564Z,70.51
2023-04-30T06:44:05.689Z,69.33
2023-04-30T06:49:06.876Z,68.42
2023-04-30T06:54:07.982Z,68.08
2023-04-30T06:59:09.566Z,68.74
2023-04-30T07:04:11.349Z,68.96
2023-04-30T07:09:15.022Z,67.88
2023-04-30T07:14:15.995Z,66.18
2023-04-30T07:19:16.968Z,65.77
2023-04-30T07:24:17.938Z,63.44
2023-04-30T07:29:18.980Z,63.26
2023-04-30T07:34:23.053Z,62.72
2023-04-30T07:39:24.267Z,61.99
2023-04-30T07:44:25.233Z,62.45
2023-04-30T07:49:26.200Z,60.30
2023-04-30T07:54:27.506Z,59.17
2023-04-30T07:59:28.514Z,58.92
2023-04-30T08:04:29.672Z,58.71
2023-04-30T08:09:30.770Z,56.84
2023-04-30T08:14:32.348Z,55.22
2023-04-30T08:19:33.325Z,56.10
2023-04-30T08:24:34.379Z,54.59
2023-04-30T08:29:35.403Z,54.94
2023-04-30T08:34:36.628Z,52.86
2023-04-30T08:39:37.589Z,52.07
2023-04-30T08:44:41.575Z,52.26
2023-04-30T08:49:43.094Z,50.70
2023-04-30T08:54:46.795Z,50.22
2023-04-30T08:59:48.087Z,50.41
2023-04-30T09:04:52.538Z,51.76
2023-04-30T09:09:57.533Z,50.10
2023-04-30T09:15:01.811Z,49.31
2023-04-30T09:20:22.620Z,47.60
2023-04-30T09:25:38.583Z,51.71
2023-04-30T09:30:40.536Z,47.75
2023-04-30T09:35:42.045Z,48.45
2023-04-30T09:40:44.452Z,50.64
2023-04-30T09:45:48.333Z,46.27
2023-04-30T09:50:50.666Z,45.78
2023-04-30T09:55:51.987Z,47.76
2023-04-30T10:00:56.562Z,48.70
2023-04-30T10:05:58.858Z,48.01
2023-04-30T10:11:04.738Z,46.11
2023-04-30T10:16:23.855Z,45.26
2023-04-30T10:21:27.401Z,43.39
2023-04-30T10:26:29.394Z,44.16
2023-04-30T10:31:35.386Z,42.61
2023-04-30T10:36:41.738Z,43.34
2023-04-30T10:41:46.420Z,43.14
2023-04-30T10:46:48.354Z,42.01
2023-04-30T10:51:51.245Z,43.85
2023-04-30T10:56:52.481Z,44.57
2023-04-30T11:01:55.787Z,43.18
2023-04-30T11:07:08.839Z,44.21
2023-04-30T11:12:27.708Z,43.20
2023-04-30T11:17:29.133Z,41.33
2023-04-30T11:22:35.150Z,42.40
2023-04-30T11:27:40.081Z,44.25
2023-04-30T11:32:45.453Z,41.77
2023-04-30T11:37:48.064Z,44.44
2023-04-30T11:42:49.088Z,43.44
2023-04-30T11:47:52.036Z,44.40
2023-04-30T11:52:54.699Z,41.82
2023-04-30T11:57:58.005Z,41.73
2023-04-30T12:03:00.878Z,41.22
2023-04-30T12:08:12.317Z,41.41
2023-04-30T12:13:14.332Z,42.00
2023-04-30T12:18:15.521Z,42.21
2023-04-30T12:23:16.629Z,42.01
2023-04-30T12:28:17.729Z,41.35
2023-04-30T12:33:19.056Z,40.99
2023-04-30T12:38:22.650Z,41.03
2023-04-30T12:43:23.685Z,40.57
2023-04-30T12:48:25.545Z,39.06
2023-04-30T12:53:28.372Z,41.22
2023-04-30T12:58:30.506Z,40.36
2023-04-30T13:03:31.737Z,38.99
2023-04-30T13:08:37.323Z,39.14
2023-04-30T13:13:47.215Z,37.99
2023-04-30T13:18:48.264Z,38.10
2023-04-30T13:23:53.613Z,39.54
2023-04-30T13:28:56.499Z,37.68
2023-04-30T13:33:57.651Z,36.84
2023-04-30T13:38:59.275Z,37.43
2023-04-30T13:44:00.278Z,37.02
2023-04-30T13:49:02.115Z,39.19
2023-04-30T13:54:03.253Z,38.80
2023-04-30T13:59:04.593Z,38.09
2023-04-30T14:04:05.596Z,37.21
2023-04-30T14:09:06.842Z,36.55
2023-04-30T14:14:08.542Z,37.80
2023-04-30T14:19:10.431Z,37.16
2023-04-30T14:24:15.387Z,35.67
2023-04-30T14:29:18.508Z,36.68
2023-04-30T14:34:20.873Z,36.35
2023-04-30T14:39:21.906Z,36.83
2023-04-30T14:44:26.260Z,36.88
2023-04-30T14:49:27.848Z,37.42
2023-04-30T14:54:29.103Z,37.12
2023-04-30T14:59:30.912Z,37.42
2023-04-30T15:04:31.970Z,36.44
2023-04-30T15:09:32.975Z,36.60
2023-04-30T15:14:33.970Z,36.18
2023-04-30T15:19:34.997Z,35.91
2023-04-30T15:24:36.315Z,35.47
2023-04-30T15:29:39.620Z,34.67
2023-04-30T15:34:40.556Z,35.05
2023-04-30T15:39:41.545Z,35.24
2023-04-30T15:44:42.519Z,35.23
2023-04-30T15:49:43.838Z,34.98
2023-04-30T15:54:44.829Z,34.71
2023-04-30T15:59:45.928Z,34.88
2023-04-30T16:04:47.514Z,35.56
2023-04-30T16:09:49.026Z,35.58
2023-04-30T16:14:50.584Z,35.65
2023-04-30T16:19:51.548Z,35.77
2023-04-30T16:24:53.396Z,35.28
2023-04-30T16:29:54.586Z,35.05
2023-04-30T16:34:55.659Z,35.54
2023-04-30T16:39:57.131Z,35.98
2023-04-30T16:44:58.687Z,35.29
2023-04-30T16:49:59.813Z,35.73
2023-04-30T16:55:01.742Z,36.53
2023-04-30T17:00:05.775Z,37.04
2023-04-30T17:05:08.918Z,36.23
2023-04-30T17:10:10.764Z,36.73
2023-04-30T17:15:12.041Z,37.38
2023-04-30T17:20:13.029Z,37.49
2023-04-30T17:25:14.581Z,37.86
2023-04-30T17:30:15.972Z,38.28
2023-04-30T17:35:17.041Z,39.32
2023-04-30T17:40:18.051Z,39.60
2023-04-30T17:45:19.280Z,40.71
2023-04-30T17:50:20.486Z,40.81
2023-04-30T17:55:23.017Z,41.00
2023-04-30T18:00:24.428Z,41.49
2023-04-30T18:05:25.528Z,42.05
2023-04-30T18:10:26.907Z,42.60
2023-04-30T18:15:28.630Z,43.26
2023-04-30T18:20:29.763Z,43.74
2023-04-30T18:25:31.253Z,44.56
2023-04-30T18:30:34.105Z,45.36
2023-04-30T18:35:36.167Z,45.95
2023-04-30T18:40:37.733Z,46.95
2023-04-30T18:45:38.866Z,47.43
2023-04-30T18:50:42.552Z,48.31
2023-04-30T18:55:45.532Z,48.70
2023-04-30T19:00:57.326Z,49.27
2023-04-30T19:05:58.928Z,49.94
2023-04-30T19:11:00.277Z,50.10
2023-04-30T19:16:01.697Z,50.57
2023-04-30T19:21:04.615Z,51.23
2023-04-30T19:26:11.401Z,51.43
2023-04-30T19:31:12.573Z,51.96
2023-04-30T19:36:14.002Z,52.56
2023-04-30T19:41:15.031Z,53.08
2023-04-30T19:46:16.259Z,53.38
2023-04-30T19:51:18.058Z,54.00
2023-04-30T19:56:20.441Z,54.41
2023-04-30T20:01:21.608Z,54.69
2023-04-30T20:06:22.767Z,55.16
2023-04-30T20:11:24.023Z,55.17
2023-04-30T20:16:25.158Z,55.20
2023-04-30T20:21:27.114Z,55.49
2023-04-30T20:26:28.523Z,55.87
2023-04-30T20:31:30.527Z,56.05
2023-04-30T20:36:31.822Z,56.34
2023-04-30T20:41:32.828Z,57.04
2023-04-30T20:46:33.922Z,57.20
2023-04-30T20:51:37.855Z,57.62
2023-04-30T20:56:38.977Z,57.80
2023-04-30T21:01:40.400Z,58.14
2023-04-30T21:06:42.005Z,58.74
2023-04-30T21:11:43.787Z,58.85
2023-04-30T21:16:46.096Z,58.72
2023-04-30T21:21:47.209Z,59.49
2023-04-30T21:26:48.394Z,59.53
2023-04-30T21:31:49.401Z,60.06
2023-04-30T21:36:51.222Z,60.26
2023-04-30T21:41:52.958Z,60.65
2023-04-30T21:46:59.498Z,60.72
2023-04-30T21:52:03.812Z,60.81
2023-04-30T21:57:05.242Z,61.15
2023-04-30T22:02:19.978Z,61.49
2023-04-30T22:07:24.178Z,62.36
2023-04-30T22:12:25.522Z,63.35
2023-04-30T22:17:30.037Z,63.97
2023-04-30T22:22:31.467Z,64.84
2023-04-30T22:27:32.478Z,65.74
2023-04-30T22:32:34.048Z,66.36
2023-04-30T22:37:38.021Z,67.27
2023-04-30T22:42:40.524Z,67.86
2023-04-30T22:47:41.753Z,68.29
2023-04-30T22:52:42.848Z,68.58
2023-04-30T22:57:43.817Z,68.94
2023-04-30T23:02:44.960Z,69.52
2023-04-30T23:07:48.669Z,69.55
2023-04-30T23:12:54.767Z,70.56
2023-04-30T23:17:57.542Z,71.10
2023-04-30T23:22:58.612Z,71.72
2023-04-30T23:28:00.497Z,72.53
2023-04-30T23:33:01.892Z,73.17
2023-04-30T23:38:04.273Z,73.56
2023-04-30T23:43:06.353Z,73.54
2023-04-30T23:48:09.729Z,74.04
2023-04-30T23:53:10.772Z,73.69
2023-04-30T23:58:12.183Z,74.10
